Hurleton, California
Current Conditions -  °F | °C
As of 2:53 AM on Friday 19 Dec 2014 (Local Time) from KOVE Reporting Station
Light Rain Light Rain  
Wind Chill: 52°   Ceiling: 2400
Heat Index: 52°   Visibility: 5mi
Dew Point: 48°   Wind: 12mph
Humidity: 86%   Direction: 110°ESE
Pressure: 30.16"   Gusts: NA
Location:  39.5324°N, 121.648°W
Report Text: KOVE 191053Z AUTO 11010KT 5SM -RA BR OVC024 11/09 A3016 RMK AO2 SLP216 P0003 T01110089
Loading
Personal Weather Stations






























Interactive Weather Map New forecast layout! Learn more

10-Day Weather Forecast

Advertisements
Track Severe Weather on mobile